Time;durP1;ratioP1;P1;durP2;ratioP2;P2;SDS_P1;SDS_P2;PMS_P1;PMS_P2;Temp;Humidity;BMP_temperature;BMP_pressure;BME280_temperature;BME280_humidity;BME280_pressure;Samples;Min_cycle;Max_cycle;Signal;HPM_P1;HPM_P2
2021/08/26 00:00:59;;;;;;;1.45;1.35;;;;;;;;;;6120665;23;20399;-65
2021/08/26 00:06:16;;;;;;;1.42;1.33;;;;;;;;;;6147253;23;20020;-65
2021/08/26 00:08:44;;;;;;;1.50;1.40;;;;;;;;;;6121964;23;20085;-65
2021/08/26 00:11:12;;;;;;;1.30;1.20;;;;;;;;;;6146665;23;20012;-65
2021/08/26 00:13:42;;;;;;;1.40;1.30;;;;;;;;;;6146370;23;20020;-65
2021/08/26 00:16:08;;;;;;;1.40;1.30;;;;;;;;;;6145584;23;20439;-64
2021/08/26 00:18:35;;;;;;;1.35;1.13;;;;;;;;;;6145494;23;20008;-64
2021/08/26 00:21:03;;;;;;;1.35;1.13;;;;;;;;;;6146360;23;19997;-65
2021/08/26 00:23:30;;;;;;;1.60;1.38;;;;;;;;;;6146828;23;20006;-65
2021/08/26 00:25:57;;;;;;;1.40;1.30;;;;;;;;;;6145595;23;20016;-66
2021/08/26 00:28:23;;;;;;;1.50;1.40;;;;;;;;;;6146395;23;20014;-65
2021/08/26 00:30:49;;;;;;;1.55;1.10;;;;;;;;;;6148556;23;20059;-66
2021/08/26 00:33:15;;;;;;;1.20;1.10;;;;;;;;;;6147848;23;20534;-65
2021/08/26 00:35:41;;;;;;;1.52;1.30;;;;;;;;;;6149064;23;20077;-65
2021/08/26 00:38:08;;;;;;;1.67;1.48;;;;;;;;;;6148121;23;20002;-65
2021/08/26 00:40:34;;;;;;;1.40;1.30;;;;;;;;;;6148876;23;20001;-65
2021/08/26 00:43:01;;;;;;;1.58;1.48;;;;;;;;;;6148525;23;20507;-65
2021/08/26 00:45:29;;;;;;;1.00;1.00;;;;;;;;;;6148643;23;20002;-65
2021/08/26 00:47:55;;;;;;;1.35;1.25;;;;;;;;;;6148319;23;20383;-65
2021/08/26 00:50:26;;;;;;;1.73;1.40;;;;;;;;;;6148771;23;20001;-65
2021/08/26 00:52:55;;;;;;;1.30;1.20;;;;;;;;;;6148777;23;20439;-66
2021/08/26 00:55:22;;;;;;;1.35;1.25;;;;;;;;;;6148425;23;20001;-66
2021/08/26 00:57:48;;;;;;;1.20;1.10;;;;;;;;;;6148465;23;20022;-66
2021/08/26 01:00:14;;;;;;;1.20;1.10;;;;;;;;;;6149255;23;20013;-65
2021/08/26 01:02:44;;;;;;;1.30;1.17;;;;;;;;;;6149032;23;20001;-66
2021/08/26 01:05:20;;;;;;;1.38;1.27;;;;;;;;;;6149249;23;19997;-65
2021/08/26 01:07:51;;;;;;;2.10;1.52;;;;;;;;;;6147856;23;20085;-65
2021/08/26 01:10:19;;;;;;;1.27;1.17;;;;;;;;;;6148034;23;20021;-65
2021/08/26 01:12:48;;;;;;;1.10;1.00;;;;;;;;;;6148275;23;20008;-65
2021/08/26 01:15:14;;;;;;;1.63;1.52;;;;;;;;;;6149351;23;20570;-65
2021/08/26 01:17:43;;;;;;;1.20;1.10;;;;;;;;;;6148620;23;20013;-66
2021/08/26 01:20:10;;;;;;;1.20;1.10;;;;;;;;;;6148771;23;20072;-65
2021/08/26 01:22:36;;;;;;;1.40;1.30;;;;;;;;;;6148733;23;20433;-65
2021/08/26 01:25:05;;;;;;;1.38;1.27;;;;;;;;;;6148671;23;20447;-65
2021/08/26 01:27:36;;;;;;;1.92;1.33;;;;;;;;;;6148511;23;20009;-65
2021/08/26 01:30:06;;;;;;;1.27;1.17;;;;;;;;;;6121770;23;20521;-65
2021/08/26 01:32:32;;;;;;;1.42;1.33;;;;;;;;;;6148144;23;20005;-65
2021/08/26 01:34:59;;;;;;;2.05;1.30;;;;;;;;;;6146905;23;20096;-65
2021/08/26 01:37:25;;;;;;;1.30;1.20;;;;;;;;;;6147970;23;20020;-65
2021/08/26 01:39:52;;;;;;;1.52;1.23;;;;;;;;;;6147968;23;20002;-65
2021/08/26 01:42:25;;;;;;;1.38;1.27;;;;;;;;;;6148215;23;20514;-65
2021/08/26 01:44:52;;;;;;;1.50;1.40;;;;;;;;;;6149207;23;19998;-66
2021/08/26 01:47:19;;;;;;;1.23;1.13;;;;;;;;;;6149754;23;20048;-65
2021/08/26 01:49:46;;;;;;;1.38;1.23;;;;;;;;;;6149432;23;20006;-66
2021/08/26 01:52:16;;;;;;;1.30;1.20;;;;;;;;;;6151427;23;20009;-66
2021/08/26 01:54:51;;;;;;;1.38;1.20;;;;;;;;;;6151371;23;20387;-66
2021/08/26 01:57:17;;;;;;;1.17;1.08;;;;;;;;;;6150281;23;20559;-66
2021/08/26 01:59:43;;;;;;;1.58;1.38;;;;;;;;;;6150902;23;20013;-66
2021/08/26 02:02:09;;;;;;;1.50;1.40;;;;;;;;;;6150279;23;20335;-66
2021/08/26 02:04:35;;;;;;;1.48;1.38;;;;;;;;;;6149897;23;20002;-65
2021/08/26 02:07:02;;;;;;;1.30;1.20;;;;;;;;;;6150000;23;20010;-65
2021/08/26 02:09:28;;;;;;;1.50;1.35;;;;;;;;;;6149625;23;20024;-66
2021/08/26 02:11:54;;;;;;;1.35;1.25;;;;;;;;;;6149787;23;20076;-66
2021/08/26 02:14:20;;;;;;;1.35;1.25;;;;;;;;;;6150184;23;20005;-66
2021/08/26 02:16:46;;;;;;;1.55;1.30;;;;;;;;;;6123193;23;20005;-66
2021/08/26 02:19:12;;;;;;;1.30;1.20;;;;;;;;;;6150618;23;20435;-66
2021/08/26 02:21:38;;;;;;;1.88;1.38;;;;;;;;;;6150269;23;20330;-65
2021/08/26 02:24:04;;;;;;;2.38;1.48;;;;;;;;;;6150289;23;20001;-66
2021/08/26 02:26:31;;;;;;;1.83;1.40;;;;;;;;;;6149920;23;20005;-66
2021/08/26 02:28:58;;;;;;;1.33;1.23;;;;;;;;;;6149402;23;20057;-65
2021/08/26 02:31:25;;;;;;;1.20;1.10;;;;;;;;;;6149935;23;20029;-65
2021/08/26 02:33:50;;;;;;;1.75;1.42;;;;;;;;;;6148797;23;20342;-65
2021/08/26 02:36:17;;;;;;;1.58;1.30;;;;;;;;;;6149661;23;20093;-65
2021/08/26 02:38:43;;;;;;;1.60;1.33;;;;;;;;;;6150129;23;20039;-65
2021/08/26 02:41:09;;;;;;;1.50;1.40;;;;;;;;;;6148325;23;20005;-65
2021/08/26 02:43:35;;;;;;;1.20;1.10;;;;;;;;;;6148159;23;20005;-65
2021/08/26 02:46:01;;;;;;;1.65;1.38;;;;;;;;;;6147302;23;20062;-65
2021/08/26 02:48:27;;;;;;;1.50;1.40;;;;;;;;;;6147606;23;20016;-65
2021/08/26 02:50:54;;;;;;;2.72;1.75;;;;;;;;;;6148567;23;20014;-65
2021/08/26 02:53:21;;;;;;;1.20;1.10;;;;;;;;;;6148071;23;20021;-65
2021/08/26 02:55:48;;;;;;;1.40;1.30;;;;;;;;;;6147602;23;20002;-66
2021/08/26 02:58:15;;;;;;;1.60;1.40;;;;;;;;;;6148033;23;20005;-66
2021/08/26 03:00:42;;;;;;;2.05;1.30;;;;;;;;;;6149005;23;20029;-65
2021/08/26 03:03:09;;;;;;;1.50;1.25;;;;;;;;;;6148082;23;20010;-65
2021/08/26 03:05:36;;;;;;;1.73;1.55;;;;;;;;;;6147530;23;20005;-65
2021/08/26 03:08:03;;;;;;;1.67;1.33;;;;;;;;;;6147314;23;20068;-65
2021/08/26 03:10:30;;;;;;;1.48;1.38;;;;;;;;;;6148217;23;20012;-65
2021/08/26 03:12:56;;;;;;;1.30;1.20;;;;;;;;;;6147934;23;20009;-65
2021/08/26 03:15:23;;;;;;;1.40;1.30;;;;;;;;;;6147736;23;20413;-64
2021/08/26 03:17:49;;;;;;;1.15;1.05;;;;;;;;;;6146815;23;20088;-65
2021/08/26 03:20:15;;;;;;;1.27;1.17;;;;;;;;;;6148447;23;20068;-65
2021/08/26 03:22:42;;;;;;;1.30;1.20;;;;;;;;;;6148800;23;20001;-66
2021/08/26 03:25:09;;;;;;;1.60;1.48;;;;;;;;;;6148095;23;20001;-66
2021/08/26 03:27:35;;;;;;;1.45;1.35;;;;;;;;;;6147207;23;20375;-65
2021/08/26 03:30:02;;;;;;;1.40;1.30;;;;;;;;;;6147332;23;20001;-65
2021/08/26 03:32:29;;;;;;;1.30;1.20;;;;;;;;;;6147465;23;19997;-65
2021/08/26 03:34:55;;;;;;;1.50;1.20;;;;;;;;;;6147466;23;20060;-66
2021/08/26 03:37:22;;;;;;;2.00;1.60;;;;;;;;;;6120317;23;20009;-65
2021/08/26 03:39:48;;;;;;;1.50;1.40;;;;;;;;;;6147630;23;20005;-65
2021/08/26 03:42:15;;;;;;;1.45;1.25;;;;;;;;;;6147960;23;20008;-65
2021/08/26 03:44:42;;;;;;;1.48;1.38;;;;;;;;;;6148078;23;20073;-65
2021/08/26 03:47:10;;;;;;;1.27;1.17;;;;;;;;;;6147008;23;20442;-66
2021/08/26 03:49:36;;;;;;;1.58;1.23;;;;;;;;;;6147393;23;20056;-66
2021/08/26 03:52:03;;;;;;;1.35;1.25;;;;;;;;;;6147912;23;20012;-66
2021/08/26 03:54:30;;;;;;;1.50;1.40;;;;;;;;;;6148154;23;20017;-65
2021/08/26 03:56:57;;;;;;;2.13;1.40;;;;;;;;;;6146888;23;20612;-65
2021/08/26 03:59:24;;;;;;;1.30;1.20;;;;;;;;;;6147367;23;20005;-66
2021/08/26 04:01:50;;;;;;;1.58;1.48;;;;;;;;;;6147061;23;20248;-66
2021/08/26 04:04:16;;;;;;;2.13;1.80;;;;;;;;;;6147515;23;20033;-66
2021/08/26 04:06:43;;;;;;;1.35;1.25;;;;;;;;;;6147416;23;20036;-64
2021/08/26 04:09:09;;;;;;;2.03;1.52;;;;;;;;;;6146914;23;20067;-65
2021/08/26 04:11:36;;;;;;;1.73;1.40;;;;;;;;;;6147183;23;20002;-65
2021/08/26 04:14:02;;;;;;;1.23;1.13;;;;;;;;;;6147074;23;20076;-65
2021/08/26 04:16:28;;;;;;;1.65;1.25;;;;;;;;;;6146530;23;20087;-65
2021/08/26 04:18:54;;;;;;;1.63;1.30;;;;;;;;;;6146710;23;20080;-64
2021/08/26 04:21:21;;;;;;;1.23;1.13;;;;;;;;;;6147240;23;20005;-65
2021/08/26 04:23:47;;;;;;;1.45;1.35;;;;;;;;;;6147154;23;20024;-65
2021/08/26 04:26:13;;;;;;;1.52;1.42;;;;;;;;;;6148587;23;20017;-65
2021/08/26 04:28:39;;;;;;;1.40;1.30;;;;;;;;;;6146566;23;20005;-65
2021/08/26 04:31:05;;;;;;;1.40;1.30;;;;;;;;;;6146662;23;20500;-65
2021/08/26 04:33:31;;;;;;;1.40;1.30;;;;;;;;;;6146454;23;20041;-64
2021/08/26 04:35:58;;;;;;;1.40;1.30;;;;;;;;;;6147062;23;20128;-65
2021/08/26 04:38:25;;;;;;;1.40;1.30;;;;;;;;;;6147032;23;20009;-65
2021/08/26 04:40:51;;;;;;;1.50;1.40;;;;;;;;;;6146926;23;20455;-65
2021/08/26 04:43:19;;;;;;;1.50;1.40;;;;;;;;;;6147277;23;20073;-65
2021/08/26 04:45:46;;;;;;;1.90;1.38;;;;;;;;;;6121085;23;20384;-65
2021/08/26 04:48:12;;;;;;;1.48;1.35;;;;;;;;;;6147713;23;20010;-65
2021/08/26 04:50:38;;;;;;;1.38;1.27;;;;;;;;;;6146957;23;20174;-65
2021/08/26 04:53:05;;;;;;;2.70;1.40;;;;;;;;;;6147260;23;20002;-65
2021/08/26 04:55:31;;;;;;;1.48;1.38;;;;;;;;;;6146676;23;20006;-65
2021/08/26 04:57:58;;;;;;;1.30;1.20;;;;;;;;;;6146546;23;20455;-66
2021/08/26 05:00:24;;;;;;;1.15;1.05;;;;;;;;;;6147226;23;20052;-65
2021/08/26 05:02:51;;;;;;;1.70;1.58;;;;;;;;;;6146531;23;20272;-66
2021/08/26 05:05:17;;;;;;;1.50;1.40;;;;;;;;;;6147140;23;20067;-65
2021/08/26 05:07:44;;;;;;;1.30;1.20;;;;;;;;;;6146999;23;20332;-65
2021/08/26 05:10:10;;;;;;;1.50;1.30;;;;;;;;;;6146717;23;20009;-66
2021/08/26 05:12:36;;;;;;;1.95;1.50;;;;;;;;;;6146385;23;20421;-65
2021/08/26 05:15:03;;;;;;;1.30;1.20;;;;;;;;;;6146738;23;20449;-65
2021/08/26 05:17:29;;;;;;;1.48;1.38;;;;;;;;;;6147665;23;20117;-64
2021/08/26 05:19:55;;;;;;;1.50;1.40;;;;;;;;;;6147950;23;20033;-64
2021/08/26 05:22:22;;;;;;;1.40;1.30;;;;;;;;;;6148140;23;20060;-64
2021/08/26 05:24:50;;;;;;;1.63;1.52;;;;;;;;;;6148218;23;20036;-64
2021/08/26 05:27:17;;;;;;;1.58;1.45;;;;;;;;;;6148254;23;20084;-65
2021/08/26 05:29:44;;;;;;;1.20;1.10;;;;;;;;;;6149075;23;20006;-64
2021/08/26 05:32:11;;;;;;;1.83;1.40;;;;;;;;;;6147634;23;20005;-64
2021/08/26 05:34:37;;;;;;;1.60;1.50;;;;;;;;;;6147078;23;20044;-65
2021/08/26 05:37:03;;;;;;;1.50;1.30;;;;;;;;;;6122007;23;20462;-65
2021/08/26 05:39:29;;;;;;;1.75;1.50;;;;;;;;;;6148110;23;20016;-65
2021/08/26 05:41:56;;;;;;;1.65;1.55;;;;;;;;;;6148041;23;20342;-65
2021/08/26 05:44:22;;;;;;;1.50;1.23;;;;;;;;;;6148349;23;20008;-65
2021/08/26 05:46:48;;;;;;;1.30;1.20;;;;;;;;;;6148454;23;20395;-64
2021/08/26 05:49:14;;;;;;;1.75;1.65;;;;;;;;;;6148887;23;20164;-65
2021/08/26 05:51:40;;;;;;;1.50;1.40;;;;;;;;;;6148632;23;20002;-65
2021/08/26 05:54:06;;;;;;;1.75;1.65;;;;;;;;;;6148520;23;20629;-65
2021/08/26 05:56:33;;;;;;;1.52;1.38;;;;;;;;;;6148658;23;20002;-65
2021/08/26 05:58:59;;;;;;;1.33;1.23;;;;;;;;;;6148598;23;20001;-65
2021/08/26 06:01:29;;;;;;;1.60;1.50;;;;;;;;;;6146946;23;20068;-65
2021/08/26 06:03:55;;;;;;;1.48;1.33;;;;;;;;;;6148624;23;20002;-65
2021/08/26 06:06:21;;;;;;;1.30;1.20;;;;;;;;;;6148809;23;20351;-66
2021/08/26 06:08:48;;;;;;;1.38;1.17;;;;;;;;;;6147687;23;20001;-66
2021/08/26 06:11:14;;;;;;;1.77;1.30;;;;;;;;;;6148977;23;20029;-65
2021/08/26 06:13:40;;;;;;;2.45;1.10;;;;;;;;;;6148290;23;20028;-66
2021/08/26 06:16:06;;;;;;;1.13;1.08;;;;;;;;;;6148647;23;20017;-66
2021/08/26 06:18:32;;;;;;;2.28;1.38;;;;;;;;;;6122020;23;20005;-65
2021/08/26 06:20:59;;;;;;;1.38;1.27;;;;;;;;;;6148159;23;19997;-65
2021/08/26 06:23:25;;;;;;;2.08;1.80;;;;;;;;;;6147509;23;20029;-65
2021/08/26 06:25:51;;;;;;;1.58;1.48;;;;;;;;;;6148468;23;20001;-65
2021/08/26 06:28:17;;;;;;;1.40;1.30;;;;;;;;;;6149120;23;20440;-65
2021/08/26 06:30:43;;;;;;;1.27;1.17;;;;;;;;;;6150063;23;20033;-65
2021/08/26 06:33:09;;;;;;;1.40;1.23;;;;;;;;;;6148637;23;20009;-65
2021/08/26 06:35:37;;;;;;;1.30;1.20;;;;;;;;;;6148471;23;20354;-65
2021/08/26 06:38:03;;;;;;;1.30;1.20;;;;;;;;;;6150789;23;20060;-65
2021/08/26 06:40:29;;;;;;;1.38;1.20;;;;;;;;;;6150516;23;20084;-65
2021/08/26 06:42:55;;;;;;;1.38;1.27;;;;;;;;;;6150049;23;20028;-65
2021/08/26 06:45:21;;;;;;;2.17;1.35;;;;;;;;;;6150443;23;20002;-65
2021/08/26 06:47:47;;;;;;;1.73;1.40;;;;;;;;;;6151099;23;20005;-65
2021/08/26 06:50:13;;;;;;;1.38;1.13;;;;;;;;;;6151771;23;20422;-65
2021/08/26 06:52:40;;;;;;;2.00;1.42;;;;;;;;;;6149856;23;20064;-65
2021/08/26 06:55:06;;;;;;;1.58;1.40;;;;;;;;;;6149649;23;20029;-65
2021/08/26 06:57:32;;;;;;;2.15;1.42;;;;;;;;;;6147895;23;20020;-65
2021/08/26 06:59:58;;;;;;;1.90;1.30;;;;;;;;;;6147173;23;20005;-64
2021/08/26 07:02:25;;;;;;;2.40;1.25;;;;;;;;;;6148386;23;20044;-65
2021/08/26 07:04:52;;;;;;;1.60;1.38;;;;;;;;;;6149201;23;19997;-64
2021/08/26 07:07:20;;;;;;;1.10;1.00;;;;;;;;;;6122820;23;20100;-65
2021/08/26 07:09:46;;;;;;;1.80;1.40;;;;;;;;;;6149897;23;20006;-65
2021/08/26 07:12:12;;;;;;;0.88;0.88;;;;;;;;;;6149818;23;20354;-65
2021/08/26 07:14:38;;;;;;;1.25;1.10;;;;;;;;;;6148873;23;20005;-65
2021/08/26 07:17:05;;;;;;;1.45;1.30;;;;;;;;;;6149139;23;20085;-65
2021/08/26 07:19:32;;;;;;;1.50;1.40;;;;;;;;;;6149052;23;20438;-65
2021/08/26 07:21:59;;;;;;;1.65;1.30;;;;;;;;;;6149156;23;20001;-65
2021/08/26 07:24:25;;;;;;;2.08;1.48;;;;;;;;;;6149037;23;20451;-65
2021/08/26 07:26:51;;;;;;;1.20;1.10;;;;;;;;;;6149041;23;20008;-65
2021/08/26 07:29:17;;;;;;;1.85;1.50;;;;;;;;;;6148888;23;20400;-65
2021/08/26 07:31:45;;;;;;;1.40;1.30;;;;;;;;;;6150119;23;20016;-65
2021/08/26 07:34:11;;;;;;;1.13;1.02;;;;;;;;;;6147553;23;20048;-65
2021/08/26 07:36:37;;;;;;;1.30;1.20;;;;;;;;;;6148612;23;20005;-65
2021/08/26 07:39:03;;;;;;;1.20;1.10;;;;;;;;;;6148677;23;20013;-65
2021/08/26 07:41:30;;;;;;;1.42;1.20;;;;;;;;;;6148857;23;20077;-65
2021/08/26 07:43:57;;;;;;;1.30;1.20;;;;;;;;;;6148406;23;20225;-65
2021/08/26 07:46:23;;;;;;;1.33;1.23;;;;;;;;;;6148760;23;20080;-65
2021/08/26 07:48:49;;;;;;;1.55;1.45;;;;;;;;;;6148834;23;20020;-66
2021/08/26 07:51:16;;;;;;;1.13;1.02;;;;;;;;;;6149077;23;20002;-65
2021/08/26 07:53:43;;;;;;;1.35;1.25;;;;;;;;;;6149614;23;20009;-65
2021/08/26 07:56:09;;;;;;;1.63;1.52;;;;;;;;;;6147968;23;20493;-67
2021/08/26 07:58:35;;;;;;;1.40;1.30;;;;;;;;;;6147234;23;20339;-65
2021/08/26 08:01:01;;;;;;;1.60;1.50;;;;;;;;;;6148411;23;20523;-66
2021/08/26 08:03:28;;;;;;;1.40;1.30;;;;;;;;;;6148419;23;20022;-65
2021/08/26 08:05:54;;;;;;;1.50;1.38;;;;;;;;;;6148432;23;20006;-66
2021/08/26 08:08:20;;;;;;;1.40;1.30;;;;;;;;;;6148655;23;20426;-66
2021/08/26 08:10:46;;;;;;;1.60;1.50;;;;;;;;;;6148635;23;20104;-66
2021/08/26 08:13:13;;;;;;;1.73;1.52;;;;;;;;;;6149080;23;20044;-64
2021/08/26 08:15:39;;;;;;;1.85;1.60;;;;;;;;;;6146960;23;20016;-65
2021/08/26 08:18:05;;;;;;;1.40;1.30;;;;;;;;;;6147749;23;20013;-65
2021/08/26 08:20:32;;;;;;;1.30;1.20;;;;;;;;;;6148384;23;20012;-64
2021/08/26 08:22:58;;;;;;;1.30;1.20;;;;;;;;;;6148238;23;20028;-65
2021/08/26 08:25:24;;;;;;;1.20;1.10;;;;;;;;;;6148604;23;20461;-65
2021/08/26 08:27:50;;;;;;;1.40;1.30;;;;;;;;;;6148453;23;20343;-65
2021/08/26 08:30:16;;;;;;;1.13;1.02;;;;;;;;;;6148868;23;20009;-65
2021/08/26 08:32:42;;;;;;;1.42;1.15;;;;;;;;;;6148471;23;20467;-65
2021/08/26 08:35:08;;;;;;;1.40;1.30;;;;;;;;;;6148111;23;20104;-65
2021/08/26 08:37:35;;;;;;;1.10;1.08;;;;;;;;;;6146716;23;20021;-65
2021/08/26 08:40:01;;;;;;;1.00;0.90;;;;;;;;;;6145576;23;19998;-65
2021/08/26 08:42:32;;;;;;;1.13;1.00;;;;;;;;;;6147141;23;20001;-65
2021/08/26 08:45:00;;;;;;;1.40;1.30;;;;;;;;;;6145999;23;20017;-65
2021/08/26 08:47:29;;;;;;;1.20;1.10;;;;;;;;;;6146531;23;20005;-65
2021/08/26 08:49:55;;;;;;;1.65;1.40;;;;;;;;;;6120726;23;20020;-65
2021/08/26 08:52:21;;;;;;;1.40;1.30;;;;;;;;;;6147867;23;20008;-64
2021/08/26 08:54:48;;;;;;;1.17;1.10;;;;;;;;;;6145301;23;20006;-64
2021/08/26 08:57:14;;;;;;;1.35;1.25;;;;;;;;;;6147603;23;20390;-64
2021/08/26 08:59:41;;;;;;;1.00;0.90;;;;;;;;;;6146602;23;20005;-64
2021/08/26 09:02:08;;;;;;;1.45;1.25;;;;;;;;;;6146757;23;20434;-63
2021/08/26 09:04:36;;;;;;;1.23;1.13;;;;;;;;;;6146742;23;20056;-63
2021/08/26 09:07:02;;;;;;;1.50;1.38;;;;;;;;;;6146902;23;20005;-63
2021/08/26 09:09:29;;;;;;;1.42;1.33;;;;;;;;;;6146558;23;20028;-63
2021/08/26 09:11:57;;;;;;;1.60;1.20;;;;;;;;;;6146675;23;20012;-64
2021/08/26 09:14:27;;;;;;;0.93;0.90;;;;;;;;;;6146512;23;20072;-63
2021/08/26 09:16:54;;;;;;;1.67;1.58;;;;;;;;;;6146264;23;20021;-63
2021/08/26 09:19:27;;;;;;;2.10;1.27;;;;;;;;;;6146536;23;20351;-63
2021/08/26 09:21:54;;;;;;;1.48;1.33;;;;;;;;;;6146723;23;20183;-63
2021/08/26 09:24:20;;;;;;;0.93;0.93;;;;;;;;;;6146740;23;20029;-63
2021/08/26 09:26:48;;;;;;;1.58;1.48;;;;;;;;;;6146989;23;20008;-64
2021/08/26 09:29:14;;;;;;;1.52;1.40;;;;;;;;;;6121273;23;20351;-63
2021/08/26 09:31:40;;;;;;;1.50;1.40;;;;;;;;;;6146588;23;20041;-64
2021/08/26 09:34:14;;;;;;;1.20;1.10;;;;;;;;;;6146171;23;20040;-64
2021/08/26 09:36:49;;;;;;;1.65;1.42;;;;;;;;;;6146625;23;20076;-64
2021/08/26 09:39:16;;;;;;;1.10;0.90;;;;;;;;;;6147256;23;20012;-63
2021/08/26 09:41:48;;;;;;;0.98;0.98;;;;;;;;;;6147323;23;20085;-64
2021/08/26 09:44:18;;;;;;;1.10;1.00;;;;;;;;;;6147224;23;20252;-64
2021/08/26 09:46:46;;;;;;;1.20;1.10;;;;;;;;;;6147446;23;20013;-63
2021/08/26 09:49:13;;;;;;;1.00;1.00;;;;;;;;;;6146909;23;20034;-63
2021/08/26 09:51:41;;;;;;;0.98;0.93;;;;;;;;;;6146328;23;20056;-64
2021/08/26 09:54:31;;;;;;;1.42;1.23;;;;;;;;;;6145958;23;20009;-64
2021/08/26 09:56:57;;;;;;;2.13;1.52;;;;;;;;;;6130819;23;20009;-63
2021/08/26 09:59:38;;;;;;;1.35;1.00;;;;;;;;;;6146160;23;20052;-63
2021/08/26 10:02:06;;;;;;;1.38;1.10;;;;;;;;;;6145116;23;20008;-63
2021/08/26 10:04:34;;;;;;;1.00;0.93;;;;;;;;;;6147135;23;20077;-64
2021/08/26 10:07:00;;;;;;;1.20;1.10;;;;;;;;;;6147643;23;20010;-64
2021/08/26 10:09:27;;;;;;;0.90;0.88;;;;;;;;;;6148082;23;20036;-64
2021/08/26 10:11:53;;;;;;;1.38;1.27;;;;;;;;;;6121494;23;20085;-64
2021/08/26 10:14:19;;;;;;;1.63;1.45;;;;;;;;;;6148466;23;20033;-65
2021/08/26 10:16:45;;;;;;;1.70;1.60;;;;;;;;;;6148298;23;20016;-64
2021/08/26 10:19:14;;;;;;;1.50;1.40;;;;;;;;;;6147084;23;20002;-63
2021/08/26 10:21:40;;;;;;;1.42;1.15;;;;;;;;;;6147849;23;20025;-63
2021/08/26 10:24:06;;;;;;;1.60;1.50;;;;;;;;;;6149418;23;20455;-63
2021/08/26 10:26:33;;;;;;;1.95;1.65;;;;;;;;;;6146978;23;20002;-63
2021/08/26 10:28:59;;;;;;;1.10;1.00;;;;;;;;;;6147559;23;20068;-63
2021/08/26 10:31:26;;;;;;;1.30;1.20;;;;;;;;;;6147653;23;20013;-63
2021/08/26 10:34:07;;;;;;;1.10;1.00;;;;;;;;;;6146958;23;20037;-63
2021/08/26 10:36:44;;;;;;;0.98;0.98;;;;;;;;;;6147494;23;20394;-63
2021/08/26 10:39:26;;;;;;;1.10;1.00;;;;;;;;;;6147997;23;20029;-63
2021/08/26 10:41:52;;;;;;;1.65;1.50;;;;;;;;;;6148026;23;20490;-65
2021/08/26 10:44:19;;;;;;;2.45;1.33;;;;;;;;;;6148659;23;20009;-63
2021/08/26 10:46:48;;;;;;;2.25;1.45;;;;;;;;;;6147174;23;20405;-63
2021/08/26 10:49:16;;;;;;;1.40;1.30;;;;;;;;;;6147791;23;20002;-64
2021/08/26 10:51:43;;;;;;;1.88;1.67;;;;;;;;;;6148438;23;20005;-64
2021/08/26 10:54:36;;;;;;;2.13;1.77;;;;;;;;;;6148278;23;20005;-64
2021/08/26 10:57:21;;;;;;;3.67;2.15;;;;;;;;;;6143008;23;20044;-64
2021/08/26 10:59:47;;;;;;;2.15;1.70;;;;;;;;;;6148518;23;20035;-64
2021/08/26 11:02:51;;;;;;;2.60;1.45;;;;;;;;;;6149136;23;20571;-63
2021/08/26 11:05:36;;;;;;;1.30;1.20;;;;;;;;;;6029820;23;20008;-63
2021/08/26 11:08:01;;;;;;;;;;;;;;;;;;6029893;23;20008;-63
2021/08/26 11:10:28;;;;;;;1.40;1.30;;;;;;;;;;6100686;23;19951;-63
2021/08/26 11:13:21;;;;;;;1.50;1.40;;;;;;;;;;6147990;23;20077;-64
2021/08/26 11:15:47;;;;;;;1.95;1.48;;;;;;;;;;6143617;23;20019;-64
2021/08/26 11:18:29;;;;;;;1.35;1.25;;;;;;;;;;6149306;23;20387;-63
2021/08/26 11:20:56;;;;;;;1.88;1.48;;;;;;;;;;6148776;23;20017;-64
2021/08/26 11:23:42;;;;;;;1.85;1.70;;;;;;;;;;6148801;23;20055;-64
2021/08/26 11:26:26;;;;;;;1.50;1.33;;;;;;;;;;6148570;23;20088;-64
2021/08/26 11:28:52;;;;;;;1.80;1.48;;;;;;;;;;6147729;23;20006;-64
2021/08/26 11:31:19;;;;;;;1.00;0.90;;;;;;;;;;6121700;23;20651;-66
2021/08/26 11:33:45;;;;;;;1.20;1.02;;;;;;;;;;6148834;23;20018;-63
2021/08/26 11:36:12;;;;;;;0.85;0.85;;;;;;;;;;6149552;23;20006;-64
2021/08/26 11:38:49;;;;;;;2.05;1.27;;;;;;;;;;6147703;23;20371;-64
2021/08/26 11:41:15;;;;;;;1.17;1.08;;;;;;;;;;6148538;23;20008;-64
2021/08/26 11:43:42;;;;;;;1.20;1.10;;;;;;;;;;6149548;23;20064;-64
2021/08/26 11:46:12;;;;;;;0.82;0.82;;;;;;;;;;6148736;23;20006;-64
2021/08/26 11:48:46;;;;;;;1.20;1.10;;;;;;;;;;6148794;23;20025;-64
2021/08/26 11:51:20;;;;;;;1.35;1.25;;;;;;;;;;6149277;23;20386;-64
2021/08/26 11:53:46;;;;;;;1.17;1.10;;;;;;;;;;6148918;23;20323;-64
2021/08/26 11:56:12;;;;;;;1.02;0.95;;;;;;;;;;6149012;23;20005;-64
2021/08/26 11:58:38;;;;;;;1.15;1.05;;;;;;;;;;6148737;23;20002;-64
2021/08/26 12:01:04;;;;;;;1.20;1.10;;;;;;;;;;6145574;23;20415;-64
2021/08/26 12:03:30;;;;;;;1.10;1.00;;;;;;;;;;6149839;23;20002;-64
2021/08/26 12:05:57;;;;;;;1.08;0.98;;;;;;;;;;6148991;23;20069;-65
2021/08/26 12:08:23;;;;;;;1.30;1.20;;;;;;;;;;6149038;23;20020;-67
2021/08/26 12:10:49;;;;;;;1.48;1.38;;;;;;;;;;6148189;23;20056;-68
2021/08/26 12:13:15;;;;;;;2.65;1.70;;;;;;;;;;6148999;23;20613;-69
2021/08/26 12:15:45;;;;;;;1.48;1.38;;;;;;;;;;6148732;23;19998;-69
2021/08/26 12:18:13;;;;;;;2.05;1.60;;;;;;;;;;6148520;23;20076;-69
2021/08/26 12:20:44;;;;;;;2.40;1.50;;;;;;;;;;6148361;23;20079;-70
2021/08/26 12:23:10;;;;;;;2.10;1.33;;;;;;;;;;6147862;23;20093;-70
2021/08/26 12:25:38;;;;;;;1.20;1.10;;;;;;;;;;6148414;23;20457;-70
2021/08/26 12:28:06;;;;;;;1.55;1.27;;;;;;;;;;6148537;23;20009;-69
2021/08/26 12:30:33;;;;;;;2.30;1.38;;;;;;;;;;6148457;23;20005;-70
2021/08/26 12:33:08;;;;;;;1.40;1.20;;;;;;;;;;6147695;23;20274;-72
2021/08/26 12:35:43;;;;;;;1.60;1.30;;;;;;;;;;6148576;23;20014;-69
2021/08/26 12:38:10;;;;;;;1.98;1.10;;;;;;;;;;6148205;23;20039;-70
2021/08/26 12:40:52;;;;;;;1.63;1.40;;;;;;;;;;6148388;23;20088;-69
2021/08/26 12:43:19;;;;;;;1.80;1.70;;;;;;;;;;6148049;23;20011;-71
2021/08/26 12:45:45;;;;;;;1.65;1.45;;;;;;;;;;6148362;23;20009;-69
2021/08/26 12:48:40;;;;;;;2.53;1.83;;;;;;;;;;6148603;23;20008;-69
2021/08/26 12:51:09;;;;;;;1.55;1.45;;;;;;;;;;6122147;23;20005;-70
2021/08/26 12:53:37;;;;;;;1.73;1.60;;;;;;;;;;6148542;23;20359;-70
2021/08/26 12:56:04;;;;;;;1.70;1.52;;;;;;;;;;6147831;23;20025;-69
2021/08/26 12:58:30;;;;;;;1.85;1.50;;;;;;;;;;6148362;23;20388;-69
2021/08/26 13:00:56;;;;;;;1.90;1.55;;;;;;;;;;6149524;23;20316;-67
2021/08/26 13:03:43;;;;;;;1.85;1.60;;;;;;;;;;6148743;23;20343;-67
2021/08/26 13:06:09;;;;;;;1.80;1.60;;;;;;;;;;6148343;23;20006;-67
2021/08/26 13:08:45;;;;;;;1.55;1.23;;;;;;;;;;6146748;23;20071;-68
2021/08/26 13:11:11;;;;;;;1.45;1.20;;;;;;;;;;6121283;23;20064;-67
2021/08/26 13:13:37;;;;;;;1.52;1.42;;;;;;;;;;6148509;23;20036;-68
2021/08/26 13:16:03;;;;;;;2.33;1.67;;;;;;;;;;6148230;23;20017;-67
2021/08/26 13:18:29;;;;;;;1.63;1.48;;;;;;;;;;6148326;23;20002;-67
2021/08/26 13:20:56;;;;;;;1.52;1.42;;;;;;;;;;6149101;23;20443;-67
2021/08/26 13:23:23;;;;;;;1.25;1.13;;;;;;;;;;6148021;23;19998;-67
2021/08/26 13:25:49;;;;;;;1.48;1.30;;;;;;;;;;6147282;23;20005;-67
2021/08/26 13:28:15;;;;;;;1.30;1.10;;;;;;;;;;6147391;23;20089;-67
2021/08/26 13:30:41;;;;;;;1.52;1.35;;;;;;;;;;6147418;23;20029;-68
2021/08/26 13:33:09;;;;;;;1.25;1.10;;;;;;;;;;6146130;23;20002;-67
2021/08/26 13:35:35;;;;;;;1.50;1.40;;;;;;;;;;6146708;23;20048;-67
2021/08/26 13:38:01;;;;;;;1.27;1.17;;;;;;;;;;6146094;23;20005;-68
2021/08/26 13:40:27;;;;;;;1.50;1.20;;;;;;;;;;6147567;23;20032;-67
2021/08/26 13:42:53;;;;;;;1.63;1.48;;;;;;;;;;6123445;23;20369;-67
2021/08/26 13:45:20;;;;;;;1.73;1.52;;;;;;;;;;6148781;23;20029;-67
2021/08/26 13:47:50;;;;;;;1.70;1.40;;;;;;;;;;6148899;23;20005;-67
2021/08/26 13:50:16;;;;;;;2.35;1.88;;;;;;;;;;6147855;23;20068;-67
2021/08/26 13:52:42;;;;;;;2.17;1.40;;;;;;;;;;6149100;23;20005;-67
2021/08/26 13:55:08;;;;;;;1.60;1.50;;;;;;;;;;6148282;23;20513;-67
2021/08/26 13:57:35;;;;;;;1.55;1.40;;;;;;;;;;6147718;23;20246;-67
2021/08/26 14:00:01;;;;;;;1.63;1.50;;;;;;;;;;6147757;23;20002;-69
2021/08/26 14:02:27;;;;;;;1.92;1.50;;;;;;;;;;6146979;23;20028;-68
2021/08/26 14:04:54;;;;;;;1.20;1.10;;;;;;;;;;6147452;23;20462;-68
2021/08/26 14:07:21;;;;;;;1.30;1.20;;;;;;;;;;6147390;23;20006;-68
2021/08/26 14:09:47;;;;;;;1.85;1.40;;;;;;;;;;6120932;23;20410;-67
2021/08/26 14:12:14;;;;;;;2.03;1.50;;;;;;;;;;6147568;23;20089;-67
2021/08/26 14:14:40;;;;;;;2.20;1.63;;;;;;;;;;6121731;23;20013;-67
2021/08/26 14:17:06;;;;;;;1.20;1.10;;;;;;;;;;6146672;23;20012;-67
2021/08/26 14:19:33;;;;;;;1.30;1.20;;;;;;;;;;6120784;23;20013;-68
2021/08/26 14:21:59;;;;;;;3.08;1.40;;;;;;;;;;6121317;23;20006;-68
2021/08/26 14:24:26;;;;;;;1.88;1.50;;;;;;;;;;6147618;23;20402;-68
2021/08/26 14:26:52;;;;;;;2.78;1.50;;;;;;;;;;6147000;23;20012;-72
2021/08/26 14:29:18;;;;;;;1.95;1.60;;;;;;;;;;6146836;23;20185;-67
2021/08/26 14:31:45;;;;;;;1.70;1.52;;;;;;;;;;6122802;23;20365;-67
2021/08/26 14:34:11;;;;;;;1.63;1.40;;;;;;;;;;6149282;23;20450;-68
2021/08/26 14:36:37;;;;;;;1.50;1.40;;;;;;;;;;6122887;23;20012;-67
2021/08/26 14:39:04;;;;;;;1.60;1.50;;;;;;;;;;6148226;23;20018;-67
2021/08/26 14:41:30;;;;;;;1.30;1.20;;;;;;;;;;6122653;23;20001;-67
2021/08/26 14:43:57;;;;;;;1.52;1.42;;;;;;;;;;6148848;23;20008;-67
2021/08/26 14:46:24;;;;;;;1.65;1.55;;;;;;;;;;6149036;23;20009;-68
2021/08/26 14:48:51;;;;;;;1.50;1.40;;;;;;;;;;6148646;23;20132;-68